createdAt,value
2023-01-17T00:00:32.846Z,100.00
2023-01-17T00:02:43.390Z,100.00
2023-01-17T00:05:03.714Z,100.00
2023-01-17T00:07:26.435Z,100.00
2023-01-17T00:09:46.700Z,100.00
2023-01-17T00:11:54.733Z,100.00
2023-01-17T00:14:02.650Z,100.00
2023-01-17T00:16:13.207Z,100.00
2023-01-17T00:18:23.616Z,100.00
2023-01-17T00:20:46.631Z,100.00
2023-01-17T00:23:07.094Z,100.00
2023-01-17T00:25:29.017Z,100.00
2023-01-17T00:27:34.574Z,100.00
2023-01-17T00:29:39.574Z,100.00
2023-01-17T00:31:44.565Z,100.00
2023-01-17T00:33:52.196Z,100.00
2023-01-17T00:35:58.531Z,100.00
2023-01-17T00:38:05.719Z,100.00
2023-01-17T00:40:11.679Z,100.00
2023-01-17T00:42:16.822Z,100.00
2023-01-17T00:44:37.051Z,100.00
2023-01-17T00:46:57.305Z,100.00
2023-01-17T00:49:20.924Z,100.00
2023-01-17T00:51:42.588Z,100.00
2023-01-17T00:54:03.510Z,100.00
2023-01-17T00:56:23.820Z,100.00
2023-01-17T00:58:44.069Z,100.00
2023-01-17T01:01:04.376Z,100.00
2023-01-17T01:03:25.410Z,100.00
2023-01-17T01:05:48.515Z,100.00
2023-01-17T01:08:09.009Z,100.00
2023-01-17T01:10:30.994Z,100.00
2023-01-17T01:12:51.435Z,100.00
2023-01-17T01:15:11.738Z,100.00
2023-01-17T01:17:32.113Z,100.00
2023-01-17T01:19:52.327Z,100.00
2023-01-17T01:22:15.894Z,100.00
2023-01-17T01:24:36.152Z,100.00
2023-01-17T01:26:56.345Z,100.00
2023-01-17T01:29:18.031Z,100.00
2023-01-17T01:31:38.374Z,100.00
2023-01-17T01:33:46.440Z,100.00
2023-01-17T01:35:56.453Z,100.00
2023-01-17T01:38:07.851Z,100.00
2023-01-17T01:40:17.263Z,100.00
2023-01-17T01:42:25.427Z,100.00
2023-01-17T01:44:47.859Z,100.00
2023-01-17T01:46:55.705Z,100.00
2023-01-17T01:49:06.100Z,100.00
2023-01-17T01:51:18.998Z,100.00
2023-01-17T01:53:33.263Z,100.00
2023-01-17T01:55:45.695Z,100.00
2023-01-17T01:57:56.847Z,100.00
2023-01-17T02:00:11.767Z,100.00
2023-01-17T02:02:22.635Z,100.00
2023-01-17T02:04:31.675Z,100.00
2023-01-17T02:06:42.688Z,100.00
2023-01-17T02:08:53.952Z,100.00
2023-01-17T02:11:01.707Z,100.00
2023-01-17T02:13:10.761Z,100.00
2023-01-17T02:15:18.733Z,100.00
2023-01-17T02:17:38.919Z,100.00
2023-01-17T02:20:11.430Z,100.00
2023-01-17T02:22:38.744Z,100.00
2023-01-17T02:25:14.676Z,100.00
2023-01-17T02:27:29.395Z,100.00
2023-01-17T02:30:22.885Z,100.00
2023-01-17T02:32:41.222Z,100.00
2023-01-17T02:34:54.715Z,100.00
2023-01-17T02:37:09.259Z,100.00
2023-01-17T02:39:24.775Z,100.00
2023-01-17T02:41:37.717Z,100.00
2023-01-17T02:43:46.221Z,100.00
2023-01-17T02:45:55.527Z,100.00
2023-01-17T02:48:08.174Z,100.00
2023-01-17T02:50:21.699Z,100.00
2023-01-17T02:52:42.526Z,100.00
2023-01-17T02:55:04.041Z,100.00
2023-01-17T02:57:30.522Z,100.00
2023-01-17T02:59:48.523Z,100.00
2023-01-17T03:02:11.771Z,100.00
2023-01-17T03:04:27.347Z,100.00
2023-01-17T03:06:39.726Z,100.00
2023-01-17T03:08:50.573Z,100.00
2023-01-17T03:10:58.357Z,100.00
2023-01-17T03:13:07.244Z,100.00
2023-01-17T03:15:17.544Z,100.00
2023-01-17T03:17:26.895Z,100.00
2023-01-17T03:19:37.915Z,100.00
2023-01-17T03:21:46.145Z,100.00
2023-01-17T03:23:54.662Z,100.00
2023-01-17T03:26:02.517Z,100.00
2023-01-17T03:28:10.453Z,100.00
2023-01-17T03:30:20.574Z,100.00
2023-01-17T03:32:28.338Z,100.00
2023-01-17T03:34:38.732Z,100.00
2023-01-17T03:36:46.540Z,100.00
2023-01-17T03:38:54.446Z,100.00
2023-01-17T03:41:02.621Z,100.00
2023-01-17T03:43:10.660Z,100.00
2023-01-17T03:45:19.928Z,100.00
2023-01-17T03:47:27.748Z,100.00
2023-01-17T03:49:38.259Z,100.00
2023-01-17T03:51:57.815Z,100.00
2023-01-17T03:54:06.295Z,100.00
2023-01-17T03:56:14.444Z,100.00
2023-01-17T03:58:22.765Z,100.00
2023-01-17T04:00:31.354Z,100.00
2023-01-17T04:02:39.998Z,100.00
2023-01-17T04:04:51.212Z,100.00
2023-01-17T04:07:01.840Z,100.00
2023-01-17T04:09:10.384Z,100.00
2023-01-17T04:11:18.930Z,100.00
2023-01-17T04:13:30.115Z,100.00
2023-01-17T04:15:42.086Z,100.00
2023-01-17T04:17:53.608Z,100.00
2023-01-17T04:20:04.343Z,100.00
2023-01-17T04:22:16.036Z,100.00
2023-01-17T04:24:24.495Z,100.00
2023-01-17T04:26:33.181Z,100.00
2023-01-17T04:28:41.167Z,100.00
2023-01-17T04:30:49.009Z,100.00
2023-01-17T04:32:57.460Z,100.00
2023-01-17T04:35:09.574Z,100.00
2023-01-17T04:37:17.465Z,100.00
2023-01-17T04:39:25.371Z,100.00
2023-01-17T04:41:33.120Z,100.00
2023-01-17T04:43:41.007Z,100.00
2023-01-17T04:45:49.005Z,100.00
2023-01-17T04:47:57.236Z,100.00
2023-01-17T04:50:08.352Z,100.00
2023-01-17T04:52:18.772Z,100.00
2023-01-17T04:54:29.243Z,100.00
2023-01-17T04:56:37.253Z,100.00
2023-01-17T04:58:45.232Z,100.00
2023-01-17T05:00:53.571Z,100.00
2023-01-17T05:03:01.386Z,100.00
2023-01-17T05:05:13.503Z,100.00
2023-01-17T05:07:21.552Z,100.00
2023-01-17T05:09:29.411Z,100.00
2023-01-17T05:11:37.872Z,100.00
2023-01-17T05:13:45.909Z,100.00
2023-01-17T05:15:54.063Z,100.00
2023-01-17T05:18:02.016Z,100.00
2023-01-17T05:20:14.233Z,100.00
2023-01-17T05:22:22.309Z,100.00
2023-01-17T05:24:30.155Z,100.00
2023-01-17T05:26:37.996Z,100.00
2023-01-17T05:28:45.747Z,100.00
2023-01-17T05:30:53.592Z,100.00
2023-01-17T05:33:02.382Z,100.00
2023-01-17T05:35:13.125Z,100.00
2023-01-17T05:37:20.990Z,100.00
2023-01-17T05:39:31.122Z,100.00
2023-01-17T05:41:39.140Z,100.00
2023-01-17T05:43:46.984Z,100.00
2023-01-17T05:45:55.227Z,100.00
2023-01-17T05:48:04.445Z,100.00
2023-01-17T05:50:16.281Z,100.00
2023-01-17T05:52:24.536Z,100.00
2023-01-17T05:54:32.451Z,100.00
2023-01-17T05:56:40.354Z,100.00
2023-01-17T05:58:48.312Z,100.00
2023-01-17T06:00:58.107Z,100.00
2023-01-17T06:03:06.121Z,100.00
2023-01-17T06:05:17.931Z,100.00
2023-01-17T06:07:25.919Z,100.00
2023-01-17T06:09:33.663Z,100.00
2023-01-17T06:11:41.470Z,100.00
2023-01-17T06:13:51.326Z,100.00
2023-01-17T06:16:02.969Z,100.00
2023-01-17T06:18:12.280Z,100.00
2023-01-17T06:20:22.980Z,100.00
2023-01-17T06:22:31.131Z,100.00
2023-01-17T06:24:39.158Z,100.00
2023-01-17T06:26:47.811Z,100.00
2023-01-17T06:28:55.921Z,100.00
2023-01-17T06:31:09.613Z,100.00
2023-01-17T06:33:17.800Z,100.00
2023-01-17T06:35:28.509Z,100.00
2023-01-17T06:37:36.714Z,100.00
2023-01-17T06:39:44.919Z,100.00
2023-01-17T06:41:53.057Z,100.00
2023-01-17T06:44:01.011Z,100.00
2023-01-17T06:46:09.234Z,100.00
2023-01-17T06:48:17.243Z,100.00
2023-01-17T06:50:28.716Z,100.00
2023-01-17T06:52:39.654Z,100.00
2023-01-17T06:54:47.527Z,100.00
2023-01-17T06:56:55.553Z,100.00
2023-01-17T06:59:04.905Z,100.00
2023-01-17T07:01:15.200Z,100.00
2023-01-17T07:03:24.574Z,100.00
2023-01-17T07:05:35.100Z,100.00
2023-01-17T07:07:42.880Z,100.00
2023-01-17T07:09:50.609Z,100.00
2023-01-17T07:12:02.043Z,100.00
2023-01-17T07:14:15.419Z,100.00
2023-01-17T07:16:23.312Z,100.00
2023-01-17T07:18:33.824Z,100.00
2023-01-17T07:20:46.049Z,100.00
2023-01-17T07:22:53.871Z,100.00
2023-01-17T07:25:01.657Z,100.00
2023-01-17T07:27:10.190Z,100.00
2023-01-17T07:29:18.000Z,100.00
2023-01-17T07:31:26.298Z,100.00
2023-01-17T07:33:34.282Z,100.00
2023-01-17T07:35:45.054Z,100.00
2023-01-17T07:37:53.809Z,100.00
2023-01-17T07:40:02.710Z,100.00
2023-01-17T07:42:10.502Z,100.00
2023-01-17T07:44:18.507Z,100.00
2023-01-17T07:46:27.962Z,100.00
2023-01-17T07:48:36.070Z,100.00
2023-01-17T07:50:47.258Z,100.00
2023-01-17T07:52:56.730Z,100.00
2023-01-17T07:55:05.364Z,100.00
2023-01-17T07:57:14.628Z,100.00
2023-01-17T07:59:22.926Z,100.00
2023-01-17T08:01:31.074Z,100.00
2023-01-17T08:03:40.365Z,100.00
2023-01-17T08:05:58.000Z,100.00
2023-01-17T08:08:05.946Z,100.00
2023-01-17T08:10:18.177Z,100.00
2023-01-17T08:12:26.134Z,100.00
2023-01-17T08:14:33.916Z,100.00
2023-01-17T08:16:42.176Z,100.00
2023-01-17T08:18:49.957Z,100.00
2023-01-17T08:21:01.011Z,100.00
2023-01-17T08:23:09.063Z,100.00
2023-01-17T08:25:19.319Z,100.00
2023-01-17T08:27:27.367Z,100.00
2023-01-17T08:29:35.344Z,100.00
2023-01-17T08:31:43.399Z,100.00
2023-01-17T08:33:51.368Z,100.00
2023-01-17T08:36:01.840Z,100.00
2023-01-17T08:38:10.148Z,100.00
2023-01-17T08:40:20.043Z,100.00
2023-01-17T08:42:28.485Z,100.00
2023-01-17T08:44:36.475Z,100.00
2023-01-17T08:46:44.384Z,100.00
2023-01-17T08:48:56.758Z,100.00
2023-01-17T08:51:07.527Z,100.00
2023-01-17T08:53:16.842Z,100.00
2023-01-17T08:55:25.628Z,100.00
2023-01-17T08:57:36.094Z,100.00
2023-01-17T08:59:44.174Z,100.00
2023-01-17T09:01:53.763Z,100.00
2023-01-17T09:04:02.162Z,100.00
2023-01-17T09:06:14.932Z,100.00
2023-01-17T09:08:22.651Z,100.00
2023-01-17T09:10:30.892Z,100.00
2023-01-17T09:12:40.966Z,100.00
2023-01-17T09:14:50.159Z,100.00
2023-01-17T09:16:58.028Z,100.00
2023-01-17T09:19:05.925Z,100.00
2023-01-17T09:21:19.870Z,100.00
2023-01-17T09:23:31.065Z,100.00
2023-01-17T09:25:39.919Z,92.41
2023-01-17T09:27:49.176Z,82.59
2023-01-17T09:29:59.041Z,75.98
2023-01-17T09:32:07.584Z,67.98
2023-01-17T09:34:15.509Z,64.61
2023-01-17T09:36:29.071Z,64.38
2023-01-17T09:38:37.271Z,62.44
2023-01-17T09:40:48.996Z,62.72
2023-01-17T09:43:03.813Z,62.69
2023-01-17T09:45:17.599Z,62.52
2023-01-17T09:47:35.777Z,57.29
2023-01-17T09:49:46.221Z,54.74
2023-01-17T09:51:56.962Z,56.05
2023-01-17T09:54:05.301Z,57.05
2023-01-17T09:56:17.505Z,58.49
2023-01-17T09:58:35.366Z,56.49
2023-01-17T10:00:54.145Z,58.71
2023-01-17T10:03:19.477Z,59.94
2023-01-17T10:05:51.307Z,62.94
2023-01-17T10:08:22.394Z,64.86
2023-01-17T10:10:40.271Z,66.78
2023-01-17T10:12:57.441Z,68.52
2023-01-17T10:15:39.589Z,67.01
2023-01-17T10:17:56.695Z,65.83
2023-01-17T10:20:19.577Z,65.69
2023-01-17T10:22:42.178Z,68.44
2023-01-17T10:25:13.108Z,65.81
2023-01-17T10:27:26.939Z,62.71
2023-01-17T10:29:38.114Z,57.28
2023-01-17T10:31:51.351Z,54.31
2023-01-17T10:34:01.012Z,50.61
2023-01-17T10:36:15.531Z,49.82
2023-01-17T10:38:31.897Z,49.05
2023-01-17T10:40:46.188Z,48.65
2023-01-17T10:43:00.808Z,49.76
2023-01-17T10:45:18.807Z,49.85
2023-01-17T10:47:28.295Z,48.85
2023-01-17T10:49:36.436Z,49.74
2023-01-17T10:52:04.939Z,48.94
2023-01-17T10:54:24.933Z,48.99
2023-01-17T10:56:37.416Z,48.42
2023-01-17T10:58:48.281Z,49.96
2023-01-17T11:01:02.632Z,50.98
2023-01-17T11:03:13.552Z,53.50
2023-01-17T11:05:26.900Z,55.60
2023-01-17T11:07:34.771Z,56.10
2023-01-17T11:09:44.160Z,56.37
2023-01-17T11:11:54.768Z,55.53
2023-01-17T11:14:04.207Z,55.74
2023-01-17T11:16:19.111Z,56.26
2023-01-17T11:18:30.347Z,56.81
2023-01-17T11:20:41.228Z,56.82
2023-01-17T11:23:05.104Z,57.05
2023-01-17T11:25:24.142Z,57.63
2023-01-17T11:27:37.791Z,56.41
2023-01-17T11:29:47.388Z,57.50
2023-01-17T11:31:56.272Z,55.98
2023-01-17T11:34:20.633Z,56.47
2023-01-17T11:36:30.355Z,57.20
2023-01-17T11:38:38.510Z,57.08
2023-01-17T11:40:47.974Z,57.61
2023-01-17T11:43:24.326Z,58.27
2023-01-17T11:45:34.001Z,58.12
2023-01-17T11:47:41.774Z,58.99
2023-01-17T11:49:51.716Z,59.83
2023-01-17T11:52:00.382Z,59.29
2023-01-17T11:54:28.562Z,59.53
2023-01-17T11:56:38.647Z,59.91
2023-01-17T11:58:49.639Z,59.26
2023-01-17T12:01:04.950Z,59.99
2023-01-17T12:03:22.964Z,60.35
2023-01-17T12:05:48.304Z,60.46
2023-01-17T12:08:05.003Z,60.02
2023-01-17T12:10:23.190Z,58.34
2023-01-17T12:13:00.293Z,58.01
2023-01-17T12:15:26.963Z,58.26
2023-01-17T12:17:52.382Z,59.39
2023-01-17T12:20:05.858Z,59.38
2023-01-17T12:22:33.928Z,59.35
2023-01-17T12:25:08.787Z,59.23
2023-01-17T12:27:27.148Z,60.53
2023-01-17T12:29:54.795Z,60.34
2023-01-17T12:32:16.164Z,60.71
2023-01-17T12:34:30.078Z,59.02
2023-01-17T12:36:46.573Z,59.29
2023-01-17T12:38:56.757Z,59.46
2023-01-17T12:41:09.732Z,60.39
2023-01-17T12:43:22.442Z,60.10
2023-01-17T12:45:36.189Z,59.13
2023-01-17T12:47:51.880Z,58.87
2023-01-17T12:50:08.409Z,59.50
2023-01-17T12:52:25.029Z,59.19
2023-01-17T12:54:39.963Z,58.60
2023-01-17T12:56:52.371Z,58.03
2023-01-17T12:59:07.376Z,58.33
2023-01-17T13:01:25.376Z,57.60
2023-01-17T13:03:49.120Z,59.44
2023-01-17T13:06:00.289Z,58.70
2023-01-17T13:08:19.969Z,57.46
2023-01-17T13:10:35.541Z,56.56
2023-01-17T13:12:44.049Z,56.86
2023-01-17T13:14:52.448Z,55.50
2023-01-17T13:17:03.568Z,55.80
2023-01-17T13:19:23.322Z,57.53
2023-01-17T13:21:32.926Z,56.88
2023-01-17T13:23:59.119Z,56.38
2023-01-17T13:26:13.730Z,57.34
2023-01-17T13:28:31.052Z,56.96
2023-01-17T13:30:59.052Z,56.80
2023-01-17T13:33:31.508Z,56.51
2023-01-17T13:35:55.269Z,56.41
2023-01-17T13:38:16.314Z,56.72
2023-01-17T13:40:52.113Z,57.15
2023-01-17T13:43:02.678Z,57.00
2023-01-17T13:45:12.004Z,58.54
2023-01-17T13:47:42.537Z,58.72
2023-01-17T13:49:56.407Z,58.57
2023-01-17T13:52:13.459Z,58.38
2023-01-17T13:54:33.671Z,57.34
2023-01-17T13:56:41.843Z,57.23
2023-01-17T13:59:31.276Z,57.21
2023-01-17T14:01:55.874Z,57.30
2023-01-17T14:04:09.482Z,58.36
2023-01-17T14:06:36.568Z,57.15
2023-01-17T14:08:50.343Z,57.93
2023-01-17T14:11:12.258Z,57.82
2023-01-17T14:13:36.602Z,59.04
2023-01-17T14:15:58.189Z,58.00
2023-01-17T14:18:08.443Z,58.79
2023-01-17T14:20:32.303Z,58.41
2023-01-17T14:22:44.020Z,58.33
2023-01-17T14:25:10.062Z,58.51
2023-01-17T14:27:25.481Z,59.11
2023-01-17T14:30:00.279Z,58.73
2023-01-17T14:32:12.199Z,58.66
2023-01-17T14:34:25.565Z,59.25
2023-01-17T14:36:35.888Z,59.48
2023-01-17T14:38:46.300Z,59.07
2023-01-17T14:40:58.884Z,59.29
2023-01-17T14:43:11.403Z,59.33
2023-01-17T14:45:27.103Z,59.75
2023-01-17T14:47:38.155Z,59.69
2023-01-17T14:49:46.986Z,60.72
2023-01-17T14:52:04.895Z,60.00
2023-01-17T14:54:24.550Z,60.25
2023-01-17T14:56:37.540Z,60.14
2023-01-17T14:58:46.910Z,61.04
2023-01-17T15:00:58.400Z,62.21
2023-01-17T15:03:14.785Z,61.77
2023-01-17T15:05:29.768Z,60.98
2023-01-17T15:07:40.162Z,61.19
2023-01-17T15:09:48.674Z,61.41
2023-01-17T15:12:00.240Z,62.42
2023-01-17T15:14:11.532Z,61.86
2023-01-17T15:16:33.903Z,60.97
2023-01-17T15:18:47.260Z,60.82
2023-01-17T15:21:01.206Z,60.70
2023-01-17T15:23:13.781Z,61.47
2023-01-17T15:25:39.448Z,60.78
2023-01-17T15:28:07.258Z,60.78
2023-01-17T15:30:25.279Z,60.23
2023-01-17T15:32:38.164Z,60.01
2023-01-17T15:34:51.721Z,61.76
2023-01-17T15:37:08.349Z,60.42
2023-01-17T15:39:22.768Z,61.20
2023-01-17T15:41:38.679Z,60.59
2023-01-17T15:43:49.585Z,60.95
2023-01-17T15:46:00.490Z,60.99
2023-01-17T15:48:37.317Z,61.85
2023-01-17T15:51:03.009Z,61.15
2023-01-17T15:53:31.772Z,61.28
2023-01-17T15:55:41.662Z,61.55
2023-01-17T15:57:52.509Z,62.37
2023-01-17T16:00:09.580Z,62.44
2023-01-17T16:02:45.523Z,62.71
2023-01-17T16:04:54.336Z,63.42
2023-01-17T16:07:20.494Z,63.28
2023-01-17T16:09:28.566Z,64.05
2023-01-17T16:11:36.424Z,63.11
2023-01-17T16:13:47.405Z,63.99
2023-01-17T16:16:11.660Z,63.16
2023-01-17T16:18:24.054Z,63.46
2023-01-17T16:20:36.674Z,63.20
2023-01-17T16:22:45.056Z,64.51
2023-01-17T16:24:54.228Z,64.15
2023-01-17T16:27:02.219Z,66.19
2023-01-17T16:29:10.387Z,64.38
2023-01-17T16:31:21.854Z,65.65
2023-01-17T16:33:29.782Z,63.98
2023-01-17T16:35:39.536Z,63.20
2023-01-17T16:37:49.846Z,63.89
2023-01-17T16:40:00.384Z,64.70
2023-01-17T16:42:08.483Z,63.72
2023-01-17T16:44:16.900Z,63.76
2023-01-17T16:46:28.561Z,63.73
2023-01-17T16:48:37.080Z,63.34
2023-01-17T16:50:48.193Z,63.25
2023-01-17T16:52:58.519Z,63.27
2023-01-17T16:55:06.621Z,63.87
2023-01-17T16:57:14.528Z,64.77
2023-01-17T16:59:22.388Z,65.27
2023-01-17T17:01:32.980Z,66.18
2023-01-17T17:03:41.318Z,68.14
2023-01-17T17:05:58.499Z,69.66
2023-01-17T17:08:06.415Z,71.21
2023-01-17T17:10:19.903Z,74.18
2023-01-17T17:12:27.785Z,76.52
2023-01-17T17:14:35.631Z,76.87
2023-01-17T17:16:47.721Z,79.42
2023-01-17T17:19:00.845Z,84.27
2023-01-17T17:21:08.712Z,86.87
2023-01-17T17:23:18.092Z,92.75
2023-01-17T17:25:25.896Z,95.75
2023-01-17T17:27:33.789Z,97.79
2023-01-17T17:29:41.666Z,100.00
2023-01-17T17:31:52.137Z,100.00
2023-01-17T17:34:04.844Z,100.00
2023-01-17T17:36:13.099Z,100.00
2023-01-17T17:38:21.331Z,100.00
2023-01-17T17:40:29.300Z,100.00
2023-01-17T17:42:37.152Z,100.00
2023-01-17T17:44:44.938Z,100.00
2023-01-17T17:46:55.857Z,100.00
2023-01-17T17:49:05.984Z,100.00
2023-01-17T17:51:25.686Z,100.00
2023-01-17T17:53:34.111Z,100.00
2023-01-17T17:55:42.387Z,100.00
2023-01-17T17:57:50.930Z,100.00
2023-01-17T17:59:59.864Z,100.00
2023-01-17T18:02:11.111Z,100.00
2023-01-17T18:04:19.272Z,100.00
2023-01-17T18:06:27.271Z,100.00
2023-01-17T18:08:35.696Z,100.00
2023-01-17T18:10:44.864Z,100.00
2023-01-17T18:12:54.469Z,100.00
2023-01-17T18:15:02.639Z,100.00
2023-01-17T18:17:15.262Z,100.00
2023-01-17T18:19:26.822Z,100.00
2023-01-17T18:21:38.072Z,100.00
2023-01-17T18:23:48.352Z,100.00
2023-01-17T18:25:56.223Z,100.00
2023-01-17T18:28:04.407Z,100.00
2023-01-17T18:30:15.371Z,100.00
2023-01-17T18:32:27.239Z,100.00
2023-01-17T18:34:35.856Z,100.00
2023-01-17T18:36:49.976Z,100.00
2023-01-17T18:38:58.440Z,100.00
2023-01-17T18:41:06.717Z,100.00
2023-01-17T18:43:14.551Z,100.00
2023-01-17T18:45:23.259Z,100.00
2023-01-17T18:47:34.834Z,100.00
2023-01-17T18:49:42.951Z,100.00
2023-01-17T18:51:52.568Z,100.00
2023-01-17T18:54:05.343Z,100.00
2023-01-17T18:56:17.636Z,100.00
2023-01-17T18:58:28.637Z,100.00
2023-01-17T19:00:36.453Z,100.00
2023-01-17T19:02:47.479Z,100.00
2023-01-17T19:04:55.639Z,100.00
2023-01-17T19:07:03.669Z,100.00
2023-01-17T19:09:13.581Z,100.00
2023-01-17T19:11:23.007Z,100.00
2023-01-17T19:13:31.819Z,100.00
2023-01-17T19:15:39.788Z,100.00
2023-01-17T19:17:50.573Z,100.00
2023-01-17T19:19:58.644Z,100.00
2023-01-17T19:22:06.463Z,100.00
2023-01-17T19:24:15.836Z,100.00
2023-01-17T19:26:27.318Z,100.00
2023-01-17T19:28:35.958Z,100.00
2023-01-17T19:30:44.259Z,100.00
2023-01-17T19:32:57.128Z,100.00
2023-01-17T19:35:09.166Z,100.00
2023-01-17T19:37:18.497Z,100.00
2023-01-17T19:39:28.608Z,100.00
2023-01-17T19:41:39.162Z,100.00
2023-01-17T19:43:49.130Z,100.00
2023-01-17T19:46:01.415Z,100.00
2023-01-17T19:48:14.548Z,100.00
2023-01-17T19:50:22.553Z,100.00
2023-01-17T19:52:32.601Z,100.00
2023-01-17T19:54:40.722Z,100.00
2023-01-17T19:56:49.819Z,100.00
2023-01-17T19:59:01.316Z,100.00
2023-01-17T20:01:12.650Z,100.00
2023-01-17T20:03:24.916Z,100.00
2023-01-17T20:05:35.823Z,100.00
2023-01-17T20:07:43.657Z,100.00
2023-01-17T20:09:51.422Z,100.00
2023-01-17T20:12:01.216Z,100.00
2023-01-17T20:14:10.434Z,100.00
2023-01-17T20:16:21.257Z,100.00
2023-01-17T20:18:32.045Z,100.00
2023-01-17T20:20:56.372Z,100.00
2023-01-17T20:23:06.370Z,100.00
2023-01-17T20:25:15.309Z,100.00
2023-01-17T20:27:26.678Z,100.00
2023-01-17T20:29:34.539Z,100.00
2023-01-17T20:31:44.170Z,100.00
2023-01-17T20:33:57.203Z,100.00
2023-01-17T20:36:10.870Z,100.00
2023-01-17T20:38:19.114Z,100.00
2023-01-17T20:40:27.413Z,100.00
2023-01-17T20:42:38.826Z,100.00
2023-01-17T20:44:46.985Z,100.00
2023-01-17T20:46:54.840Z,100.00
2023-01-17T20:49:07.777Z,100.00
2023-01-17T20:51:16.776Z,100.00
2023-01-17T20:53:24.723Z,100.00
2023-01-17T20:55:32.981Z,100.00
2023-01-17T20:57:40.921Z,100.00
2023-01-17T20:59:52.500Z,100.00
2023-01-17T21:02:13.481Z,100.00
2023-01-17T21:04:30.446Z,100.00
2023-01-17T21:06:54.469Z,100.00
2023-01-17T21:09:05.670Z,100.00
2023-01-17T21:11:15.880Z,100.00
2023-01-17T21:13:23.906Z,100.00
2023-01-17T21:15:44.523Z,100.00
2023-01-17T21:18:44.158Z,100.00
2023-01-17T21:20:59.394Z,100.00
2023-01-17T21:23:09.143Z,100.00
2023-01-17T21:25:17.890Z,100.00
2023-01-17T21:27:25.759Z,100.00
2023-01-17T21:29:41.310Z,100.00
2023-01-17T21:31:49.061Z,100.00
2023-01-17T21:34:03.553Z,100.00
2023-01-17T21:36:15.189Z,100.00
2023-01-17T21:38:23.066Z,100.00
2023-01-17T21:40:30.885Z,100.00
2023-01-17T21:42:42.847Z,100.00
2023-01-17T21:44:52.598Z,100.00
2023-01-17T21:47:03.509Z,100.00
2023-01-17T21:49:13.517Z,100.00
2023-01-17T21:51:24.402Z,100.00
2023-01-17T21:53:37.475Z,100.00
2023-01-17T21:55:57.747Z,100.00
2023-01-17T21:58:18.050Z,100.00
2023-01-17T22:00:30.918Z,100.00
2023-01-17T22:02:39.912Z,100.00
2023-01-17T22:04:48.141Z,100.00
2023-01-17T22:06:58.720Z,100.00
2023-01-17T22:09:07.319Z,100.00
2023-01-17T22:11:17.033Z,100.00
2023-01-17T22:13:25.154Z,100.00
2023-01-17T22:15:36.609Z,100.00
2023-01-17T22:17:45.136Z,100.00
2023-01-17T22:19:52.967Z,100.00
2023-01-17T22:22:04.079Z,100.00
2023-01-17T22:24:16.900Z,100.00
2023-01-17T22:26:28.271Z,100.00
2023-01-17T22:28:36.814Z,100.00
2023-01-17T22:30:44.868Z,100.00
2023-01-17T22:32:53.452Z,100.00
2023-01-17T22:35:01.279Z,100.00
2023-01-17T22:37:12.606Z,100.00
2023-01-17T22:39:20.785Z,100.00
2023-01-17T22:41:31.382Z,100.00
2023-01-17T22:43:40.895Z,100.00
2023-01-17T22:45:48.708Z,100.00
2023-01-17T22:47:56.485Z,100.00
2023-01-17T22:50:04.695Z,100.00
2023-01-17T22:52:15.397Z,100.00
2023-01-17T22:54:23.260Z,100.00
2023-01-17T22:56:33.645Z,100.00
2023-01-17T22:58:44.958Z,100.00
2023-01-17T23:00:53.142Z,100.00
2023-01-17T23:03:03.413Z,100.00
2023-01-17T23:05:12.707Z,100.00
2023-01-17T23:07:27.096Z,100.00
2023-01-17T23:09:34.856Z,100.00
2023-01-17T23:11:43.408Z,100.00
2023-01-17T23:13:51.914Z,100.00
2023-01-17T23:16:12.725Z,100.00
2023-01-17T23:18:41.856Z,100.00
2023-01-17T23:20:49.648Z,100.00
2023-01-17T23:23:00.296Z,100.00
2023-01-17T23:25:11.447Z,100.00
2023-01-17T23:27:33.555Z,100.00
2023-01-17T23:29:41.340Z,100.00
2023-01-17T23:31:49.240Z,100.00
2023-01-17T23:33:57.249Z,100.00
2023-01-17T23:36:09.379Z,100.00
2023-01-17T23:38:34.152Z,100.00
2023-01-17T23:40:42.966Z,100.00
2023-01-17T23:43:03.272Z,100.00
2023-01-17T23:45:12.172Z,100.00
2023-01-17T23:47:20.008Z,100.00
2023-01-17T23:49:29.666Z,100.00
2023-01-17T23:51:39.133Z,100.00
2023-01-17T23:53:52.226Z,100.00
2023-01-17T23:56:00.358Z,100.00
2023-01-17T23:58:08.855Z,100.00
